首页
METAR-TAF:

METAR-TAF

机场 :

弗尔沙茨, 塞尔维亚

纬度: 45-09N, 经度: 021-19E, 海拔: 83米

当前天气观测

该预报发布于33分钟前的23:00 UTC
风速2节,风向多变
温度 9°C
湿度 100%
气压 1015 hPa
能见度10公里或以上

METAR: LYVR 312300Z AUTO VRB02KT 9999 FEW034/// OVC044/// 09/09 Q1015

时间: 01:33 (23:33 UTC)

预报

该预报发布于6小时和33分钟前的17:00 UTC
预报有效从31日的 18点(UTC)到 01日的 18点(UTC)
风速6节,风向西转西北
能见度10公里或以上
多云层高于3300英尺
成为
从 01日的 00点(UTC)到 01日的 02点(UTC)
多云层高于600英尺
多云层高于2700英尺
成为
从 01日的 10点(UTC)到 01日的 12点(UTC)
散云层高于2000英尺
多云层高于3000英尺
短暂存在
从 01日的 12点(UTC)到 01日的 18点(UTC)
风速16节,风向北转西北
能見度: 3000
散云层高于2500英尺, 积雨云.
多云层高于3000英尺
雷暴, 雨

TAF: LYVR 311700Z 3118/0118 30006KT 9999 BKN033 TX18/0113Z TN08/0103Z BECMG 0100/0102 BKN006 BKN027 BECMG 0110/0112 SCT020 BKN030 TEMPO 0112/0118 33016KT 3000 TSRA SCT025CB BKN030

超过4000个机场的气象观测和天气预报(METAR&TAF报告)。

可查询的气象台以黄色和红色小点在地图上表示。

将鼠标移到小点上方,可查看气象台名称。

然后点击查看天气观测和预报。

如需切换地图:点击带黑十字的绿色按钮放大地图;点击带横线的绿色按钮缩小地图;或者点击绿色箭头查看邻近地区的地图。


METAR-TAF: